Terminal Aerodrome Forecast
Issued by NWS

Home | Current Version | Previous Version | Text Only | Print | Product List | Glossary On
Versions: 1 2 3 4 5 6 7 8 9 10 11 12 13 14 15 16 17 18
000
FTUS46 KSGX 270000 AAA
TAFONT
TAF AMD
KONT 270012Z 2700/2806 VRB06KT 3SM RA SCT050 OVC060
     FM270100 VRB06KT 6SM -RA SCT050 OVC080
     FM270230 VRB04KT P6SM -SHRA BKN050 OVC080
     FM270600 VRB04KT P6SM BKN050
     FM271400 VRB06KT P6SM FEW050 FEW200=

USA.gov is the U.S. government's official web portal to all federal, state and local government web resources and services.